Smyrna, Texas
Current Conditions -  °F | °C
As of 9:53 PM on Tuesday 27 Jan 2015 (Local Time) from KTXK Reporting Station
Clear Clear  
Wind Chill: 54°   Ceiling: Unl
Heat Index: 54°   Visibility: 10mi
Dew Point: 36°   Wind: 3mph
Humidity: 51%   Direction: 190°S
Pressure: 30.13"   Gusts: NA
Location:  33.0888°N, 94.1627°W
Report Text: KTXK 280353Z AUTO 19003KT 10SM CLR 12/02 A3013 RMK AO2 SLP200 T01220022
Loading
Personal Weather Stations






























Interactive Weather Map New forecast layout! Learn more

10-Day Weather Forecast

Advertisements
Track Severe Weather on mobile